Time;durP1;ratioP1;P1;durP2;ratioP2;P2;SDS_P1;SDS_P2;PMS_P1;PMS_P2;Temp;Humidity;BMP_temperature;BMP_pressure;BME280_temperature;BME280_humidity;BME280_pressure;Samples;Min_cycle;Max_cycle;Signal;HPM_P1;HPM_P2
2022/10/28 00:01:09;;;;;;;8.63;5.47;;;15.00;99.90;;;;;;6137574;23;20442;-77
2022/10/28 00:03:38;;;;;;;6.50;5.73;;;15.00;99.90;;;;;;6135618;23;20434;-77
2022/10/28 00:06:09;;;;;;;10.27;6.17;;;15.00;99.90;;;;;;6140407;23;20448;-77
2022/10/28 00:08:36;;;;;;;7.90;6.00;;;14.90;99.90;;;;;;6139308;23;20566;-77
2022/10/28 00:11:05;;;;;;;9.97;5.60;;;14.90;99.90;;;;;;6147204;23;20514;-77
2022/10/28 00:13:33;;;;;;;10.03;6.20;;;14.80;99.90;;;;;;6150195;23;20451;-76
2022/10/28 00:16:05;;;;;;;9.90;6.00;;;14.80;99.90;;;;;;6175623;23;20501;-76
2022/10/28 00:18:32;;;;;;;8.13;6.30;;;14.70;99.90;;;;;;6141547;23;20439;-77
2022/10/28 00:21:01;;;;;;;10.90;6.27;;;14.70;99.90;;;;;;6138267;23;20514;-76
2022/10/28 00:23:30;;;;;;;10.70;7.10;;;14.70;99.90;;;;;;6152770;23;20466;-77
2022/10/28 00:26:04;;;;;;;8.13;6.17;;;14.70;99.90;;;;;;6155999;23;20508;-77
2022/10/28 00:28:32;;;;;;;7.40;6.23;;;14.60;99.90;;;;;;6140048;23;20470;-76
2022/10/28 00:31:04;;;;;;;7.50;6.30;;;14.50;99.90;;;;;;6135393;23;20480;-77
2022/10/28 00:33:31;;;;;;;8.97;5.57;;;14.40;99.90;;;;;;6164776;23;20442;-76
2022/10/28 00:36:07;;;;;;;8.00;5.40;;;14.40;99.90;;;;;;6134418;23;20443;-77
2022/10/28 00:38:36;;;;;;;9.93;6.20;;;14.40;99.90;;;;;;6148529;23;20527;-77
2022/10/28 00:41:04;;;;;;;6.87;5.60;;;14.50;99.90;;;;;;6149594;23;20519;-77
2022/10/28 00:43:39;;;;;;;8.10;5.43;;;14.50;99.90;;;;;;6138018;23;20976;-76
2022/10/28 00:46:17;;;;;;;13.43;6.37;;;14.70;99.90;;;;;;6166337;23;20525;-77
2022/10/28 00:48:47;;;;;;;9.97;6.33;;;14.60;99.90;;;;;;6124129;23;20448;-77
2022/10/28 00:51:16;;;;;;;11.63;5.70;;;14.60;99.90;;;;;;6114108;23;20439;-76
2022/10/28 00:53:47;;;;;;;8.43;5.53;;;14.60;99.90;;;;;;6125164;23;20443;-77
2022/10/28 00:56:16;;;;;;;7.53;5.70;;;14.60;99.90;;;;;;6164538;23;20456;-76
2022/10/28 00:58:44;;;;;;;8.37;5.97;;;14.60;99.90;;;;;;6148551;23;20434;-76
2022/10/28 01:01:12;;;;;;;8.30;6.43;;;14.60;99.90;;;;;;6140562;23;20472;-77
2022/10/28 01:03:39;;;;;;;7.23;5.77;;;14.60;99.90;;;;;;6138297;23;20569;-77
2022/10/28 01:06:07;;;;;;;10.60;6.23;;;14.60;99.90;;;;;;6152297;23;20445;-77
2022/10/28 01:08:35;;;;;;;7.10;5.90;;;14.60;99.90;;;;;;6160131;23;20518;-77
2022/10/28 01:11:14;;;;;;;8.20;6.13;;;14.50;99.90;;;;;;6146480;23;20840;-77
2022/10/28 01:13:57;;;;;;;7.63;5.63;;;14.60;99.90;;;;;;6164817;23;20761;-76
2022/10/28 01:16:34;;;;;;;9.97;6.00;;;14.50;99.90;;;;;;6146314;23;20437;-77
2022/10/28 01:20:02;;;;;;;12.63;5.97;;;14.50;99.90;;;;;;6155813;23;20867;-77
2022/10/28 01:22:33;;;;;;;9.63;5.80;;;14.50;99.90;;;;;;6155207;23;20425;-77
2022/10/28 01:25:33;;;;;;;7.57;6.10;;;14.50;99.90;;;;;;6150031;23;20455;-77
2022/10/28 01:28:39;;;;;;;8.03;5.50;;;14.40;99.90;;;;;;6142528;23;20446;-77
2022/10/28 01:31:33;;;;;;;7.87;5.20;;;14.40;99.90;;;;;;6122227;23;20876;-76
2022/10/28 01:34:10;;;;;;;6.10;5.27;;;14.40;99.90;;;;;;6146856;23;20436;-77
2022/10/28 01:36:42;;;;;;;9.73;5.57;;;14.40;99.90;;;;;;6129364;23;20437;-77
2022/10/28 01:39:20;;;;;;;6.53;5.50;;;14.40;99.90;;;;;;6151628;23;20434;-76
2022/10/28 01:41:52;;;;;;;7.70;5.53;;;14.40;99.90;;;;;;6150361;23;20511;-76
2022/10/28 01:44:28;;;;;;;10.73;6.27;;;14.40;99.90;;;;;;6112307;23;20934;-77
2022/10/28 01:47:02;;;;;;;6.70;5.53;;;14.30;99.90;;;;;;6156191;23;20435;-77
2022/10/28 01:49:38;;;;;;;7.00;5.40;;;14.30;99.90;;;;;;6131132;23;20457;-77
2022/10/28 01:52:09;;;;;;;6.80;5.33;;;14.30;99.90;;;;;;6143222;23;21004;-77
2022/10/28 01:54:40;;;;;;;8.63;6.27;;;14.40;99.90;;;;;;6149577;23;20551;-77
2022/10/28 01:57:08;;;;;;;7.10;5.47;;;14.30;99.90;;;;;;6146417;23;20435;-77
2022/10/28 01:59:38;;;;;;;8.97;6.40;;;14.30;99.90;;;;;;6113996;23;20434;-77
2022/10/28 02:02:06;;;;;;;7.60;6.33;;;14.30;99.90;;;;;;6153298;23;21053;-76
2022/10/28 02:04:33;;;;;;;9.57;6.10;;;14.30;99.90;;;;;;6146992;23;20462;-76
2022/10/28 02:07:01;;;;;;;8.90;5.70;;;14.20;99.90;;;;;;6163253;23;20437;-77
2022/10/28 02:09:43;;;;;;;6.73;5.70;;;14.20;99.90;;;;;;6150252;23;20486;-77
2022/10/28 02:12:21;;;;;;;8.23;5.83;;;14.20;99.90;;;;;;6146281;23;20447;-77
2022/10/28 02:15:16;;;;;;;8.03;5.87;;;14.20;99.90;;;;;;6126042;23;20506;-77
2022/10/28 02:17:56;;;;;;;7.10;5.70;;;14.20;99.90;;;;;;6106769;23;20433;-76
2022/10/28 02:20:34;;;;;;;11.77;6.00;;;14.10;99.90;;;;;;6153205;23;20538;-77
2022/10/28 02:23:15;;;;;;;7.47;6.53;;;14.00;99.90;;;;;;6152175;23;20431;-77
2022/10/28 02:25:46;;;;;;;7.00;6.30;;;14.00;99.90;;;;;;6129550;23;20844;-76
2022/10/28 02:28:19;;;;;;;9.63;6.10;;;14.00;99.90;;;;;;6141675;23;20471;-76
2022/10/28 02:30:52;;;;;;;8.47;6.30;;;13.90;99.90;;;;;;6123940;23;20465;-77
2022/10/28 02:33:23;;;;;;;11.00;7.43;;;13.90;99.90;;;;;;6175785;23;20857;-76
2022/10/28 02:35:55;;;;;;;8.27;6.00;;;13.80;99.90;;;;;;6156101;23;20434;-76
2022/10/28 02:38:27;;;;;;;10.73;6.57;;;13.80;99.90;;;;;;6139354;23;20433;-76
2022/10/28 02:40:59;;;;;;;6.87;5.10;;;13.80;99.90;;;;;;6146746;23;20513;-76
2022/10/28 02:43:29;;;;;;;9.40;5.53;;;13.70;99.90;;;;;;6143149;23;20490;-76
2022/10/28 02:45:59;;;;;;;7.30;5.60;;;13.70;99.90;;;;;;6094275;23;20188;-76
2022/10/28 02:48:33;;;;;;;8.37;5.23;;;13.70;99.90;;;;;;6139903;23;20448;-77
2022/10/28 02:51:06;;;;;;;7.63;5.40;;;13.60;99.90;;;;;;6140613;23;20456;-76
2022/10/28 02:53:41;;;;;;;5.27;4.77;;;13.60;99.90;;;;;;6127245;23;20441;-76
2022/10/28 02:56:13;;;;;;;6.60;5.20;;;13.60;99.90;;;;;;6154281;23;20480;-76
2022/10/28 02:58:41;;;;;;;6.97;4.57;;;13.50;99.90;;;;;;6150816;23;20767;-76
2022/10/28 03:01:08;;;;;;;5.97;5.20;;;13.50;99.90;;;;;;6171499;23;20837;-76
2022/10/28 03:03:36;;;;;;;7.13;4.70;;;13.50;99.90;;;;;;6117611;23;20445;-76
2022/10/28 03:06:04;;;;;;;10.50;5.50;;;13.50;99.90;;;;;;6158472;23;20465;-77
2022/10/28 03:08:31;;;;;;;6.20;4.97;;;13.50;99.90;;;;;;6113265;23;20457;-77
2022/10/28 03:10:58;;;;;;;10.00;5.70;;;13.50;99.90;;;;;;6163061;23;20495;-77
2022/10/28 03:13:25;;;;;;;6.30;4.77;;;13.50;99.90;;;;;;6155637;23;20289;-77
2022/10/28 03:15:52;;;;;;;5.93;5.20;;;13.50;99.90;;;;;;6148744;23;20438;-74
2022/10/28 03:18:19;;;;;;;11.20;5.57;;;13.50;99.90;;;;;;6146258;23;20937;-76
2022/10/28 03:20:48;;;;;;;8.30;4.90;;;13.60;99.90;;;;;;6121688;23;20518;-76
2022/10/28 03:23:16;;;;;;;6.87;5.57;;;13.60;99.90;;;;;;6152095;23;20961;-76
2022/10/28 03:25:43;;;;;;;7.27;5.50;;;13.60;99.90;;;;;;6124817;23;20560;-76
2022/10/28 03:28:10;;;;;;;8.77;5.10;;;13.60;99.90;;;;;;6129667;23;20811;-76
2022/10/28 03:30:37;;;;;;;5.90;5.03;;;13.60;99.90;;;;;;6125005;23;20820;-76
2022/10/28 03:33:04;;;;;;;7.13;4.90;;;13.60;99.90;;;;;;6134552;23;20513;-76
2022/10/28 03:35:32;;;;;;;8.43;5.30;;;13.70;99.90;;;;;;6114371;23;20518;-76
2022/10/28 03:38:00;;;;;;;9.13;6.37;;;13.70;99.90;;;;;;6141947;23;20455;-76
2022/10/28 03:40:27;;;;;;;7.63;5.77;;;13.70;99.90;;;;;;6155380;23;20439;-76
2022/10/28 03:42:55;;;;;;;6.53;5.60;;;13.70;99.90;;;;;;6122711;23;20437;-76
2022/10/28 03:45:22;;;;;;;11.63;5.80;;;13.70;99.90;;;;;;6129143;23;20437;-76
2022/10/28 03:47:49;;;;;;;6.97;5.70;;;13.70;99.90;;;;;;6128053;23;20466;-76
2022/10/28 03:50:16;;;;;;;8.23;5.93;;;13.80;99.90;;;;;;6146201;23;20479;-76
2022/10/28 03:52:44;;;;;;;6.80;6.00;;;13.80;99.90;;;;;;6158905;23;20572;-76
2022/10/28 03:55:12;;;;;;;10.07;6.10;;;13.80;99.90;;;;;;6148118;23;20581;-76
2022/10/28 03:57:39;;;;;;;8.63;5.40;;;13.80;99.90;;;;;;6145082;23;20434;-76
2022/10/28 04:00:08;;;;;;;8.87;5.40;;;13.80;99.90;;;;;;6155988;23;20840;-76
2022/10/28 04:02:35;;;;;;;8.53;5.93;;;13.80;99.90;;;;;;6151011;23;20435;-76
2022/10/28 04:05:02;;;;;;;8.50;5.60;;;13.80;99.90;;;;;;6115194;23;20474;-76
2022/10/28 04:07:29;;;;;;;6.77;4.90;;;13.80;99.90;;;;;;6134249;23;20441;-76
2022/10/28 04:09:57;;;;;;;8.40;5.23;;;13.80;99.90;;;;;;6143626;23;20968;-76
2022/10/28 04:12:26;;;;;;;6.27;5.20;;;13.90;99.90;;;;;;6145238;23;20430;-77
2022/10/28 04:14:54;;;;;;;7.60;5.00;;;13.70;99.90;;;;;;6112913;23;20854;-76
2022/10/28 04:17:22;;;;;;;12.20;6.03;;;13.70;99.90;;;;;;6142506;23;20434;-76
2022/10/28 04:19:49;;;;;;;6.93;4.80;;;13.80;99.90;;;;;;6164133;23;20468;-76
2022/10/28 04:22:17;;;;;;;7.00;3.80;;;13.70;99.90;;;;;;6161848;23;20468;-76
2022/10/28 04:24:44;;;;;;;6.63;4.90;;;13.70;99.90;;;;;;6137499;23;20434;-77
2022/10/28 04:27:11;;;;;;;6.37;4.53;;;13.70;99.90;;;;;;6145097;23;20435;-76
2022/10/28 04:29:41;;;;;;;5.53;5.03;;;13.80;99.90;;;;;;6130030;23;20435;-76
2022/10/28 04:32:09;;;;;;;6.90;4.43;;;13.60;99.90;;;;;;6140719;23;20825;-77
2022/10/28 04:34:37;;;;;;;7.37;5.00;;;13.50;99.90;;;;;;6130477;23;20439;-76
2022/10/28 04:37:04;;;;;;;7.20;4.90;;;13.50;99.90;;;;;;6139721;23;20441;-76
2022/10/28 04:39:31;;;;;;;5.93;4.30;;;13.50;99.90;;;;;;6107446;23;20437;-76
2022/10/28 04:41:58;;;;;;;5.87;4.50;;;13.50;99.90;;;;;;6117118;23;21015;-75
2022/10/28 04:44:26;;;;;;;8.17;4.87;;;13.50;99.90;;;;;;6117087;23;20437;-78
2022/10/28 04:46:55;;;;;;;6.87;4.90;;;13.50;99.90;;;;;;6139310;23;20476;-75
2022/10/28 04:49:22;;;;;;;7.73;5.40;;;13.50;99.90;;;;;;6146589;23;20460;-75
2022/10/28 04:51:50;;;;;;;6.47;4.60;;;13.50;99.90;;;;;;6149008;23;20484;-75
2022/10/28 04:54:17;;;;;;;7.93;5.60;;;13.60;99.90;;;;;;6152028;23;20577;-75
2022/10/28 04:56:44;;;;;;;5.70;5.10;;;13.60;99.90;;;;;;6139805;23;20471;-74
2022/10/28 04:59:11;;;;;;;5.43;4.90;;;13.70;99.90;;;;;;6122988;23;20440;-74
2022/10/28 05:01:38;;;;;;;7.67;5.27;;;13.50;99.90;;;;;;6105002;23;20431;-75
2022/10/28 05:04:07;;;;;;;7.57;4.97;;;13.50;99.90;;;;;;6118652;23;20438;-74
2022/10/28 05:06:34;;;;;;;7.43;5.50;;;13.50;99.90;;;;;;6147760;23;20452;-74
2022/10/28 05:09:01;;;;;;;6.07;5.13;;;13.50;99.90;;;;;;6140354;23;20994;-74
2022/10/28 05:11:28;;;;;;;9.23;5.60;;;13.50;99.90;;;;;;6151688;23;20486;-74
2022/10/28 05:13:57;;;;;;;5.67;5.17;;;13.50;99.90;;;;;;6135942;23;21013;-75
2022/10/28 05:16:24;;;;;;;8.90;6.13;;;13.80;99.90;;;;;;6144658;23;20442;-77
2022/10/28 05:18:51;;;;;;;6.40;4.97;;;13.60;99.90;;;;;;6146437;23;20513;-77
2022/10/28 05:21:20;;;;;;;10.13;5.13;;;13.60;99.90;;;;;;6149598;23;20442;-76
2022/10/28 05:23:47;;;;;;;8.23;5.63;;;13.70;99.90;;;;;;6148532;23;20469;-77
2022/10/28 05:26:14;;;;;;;9.10;6.23;;;13.60;99.90;;;;;;6156252;23;20472;-77
2022/10/28 05:28:42;;;;;;;6.80;6.10;;;13.60;99.90;;;;;;6150012;23;20470;-77
2022/10/28 05:31:09;;;;;;;9.57;6.20;;;13.60;99.90;;;;;;6165953;23;20447;-77
2022/10/28 05:33:36;;;;;;;9.20;6.80;;;13.70;99.90;;;;;;6147708;23;20493;-77
2022/10/28 05:36:05;;;;;;;7.80;6.33;;;13.70;99.90;;;;;;6155869;23;20443;-77
2022/10/28 05:38:34;;;;;;;8.40;6.03;;;13.70;99.90;;;;;;6150099;23;20939;-77
2022/10/28 05:41:02;;;;;;;8.50;5.50;;;13.70;99.90;;;;;;6133385;23;20434;-77
2022/10/28 05:43:29;;;;;;;8.27;5.43;;;13.70;99.90;;;;;;6148233;23;20525;-77
2022/10/28 05:45:57;;;;;;;8.90;6.07;;;13.70;99.90;;;;;;6145236;23;20434;-77
2022/10/28 05:48:25;;;;;;;5.90;5.23;;;13.60;99.90;;;;;;6138765;23;20482;-77
2022/10/28 05:50:52;;;;;;;6.03;5.43;;;13.60;99.90;;;;;;6141837;23;20458;-77
2022/10/28 05:53:19;;;;;;;9.93;5.87;;;13.60;99.90;;;;;;6139151;23;20458;-77
2022/10/28 05:55:48;;;;;;;14.03;6.10;;;13.50;99.90;;;;;;6140036;23;20434;-77
2022/10/28 05:58:16;;;;;;;8.17;6.03;;;13.60;99.90;;;;;;6145919;23;20479;-77
2022/10/28 06:00:44;;;;;;;10.10;6.33;;;13.50;99.90;;;;;;6110195;23;20446;-76
2022/10/28 06:03:12;;;;;;;11.80;6.30;;;13.60;99.90;;;;;;6111136;23;20488;-77
2022/10/28 06:05:41;;;;;;;10.37;5.97;;;13.60;99.90;;;;;;6163032;23;20431;-77
2022/10/28 06:08:09;;;;;;;10.30;5.80;;;13.60;99.90;;;;;;6146337;23;20422;-77
2022/10/28 06:10:36;;;;;;;7.40;5.90;;;13.60;99.90;;;;;;6160672;23;20453;-76
2022/10/28 06:13:06;;;;;;;9.10;6.03;;;13.70;99.90;;;;;;6182019;23;20460;-77
2022/10/28 06:15:33;;;;;;;8.33;5.27;;;13.90;99.90;;;;;;6175262;23;20872;-77
2022/10/28 06:18:00;;;;;;;8.63;5.20;;;13.70;99.90;;;;;;6150233;23;20422;-77
2022/10/28 06:20:27;;;;;;;10.00;6.10;;;13.70;99.90;;;;;;6151852;23;20434;-77
2022/10/28 06:22:55;;;;;;;8.10;5.70;;;13.70;99.90;;;;;;6150369;23;20427;-77
2022/10/28 06:25:24;;;;;;;9.13;5.70;;;13.70;99.90;;;;;;6138422;23;20436;-76
2022/10/28 06:27:53;;;;;;;9.33;5.90;;;13.80;99.90;;;;;;6152775;23;20486;-77
2022/10/28 06:30:22;;;;;;;10.90;6.13;;;13.70;99.90;;;;;;6138568;23;20428;-77
2022/10/28 06:32:49;;;;;;;10.60;5.60;;;13.70;99.90;;;;;;6167344;23;20886;-77
2022/10/28 06:35:17;;;;;;;8.23;4.80;;;13.70;99.90;;;;;;6162849;23;20496;-77
2022/10/28 06:37:44;;;;;;;10.70;5.30;;;13.70;99.90;;;;;;6152836;23;20429;-77
2022/10/28 06:40:11;;;;;;;7.00;5.60;;;13.80;99.90;;;;;;6163817;23;20434;-77
2022/10/28 06:42:39;;;;;;;8.53;5.80;;;13.80;99.90;;;;;;6169247;23;20443;-77
2022/10/28 06:45:07;;;;;;;7.00;5.30;;;13.80;99.90;;;;;;6136645;23;21374;-78
2022/10/28 06:47:35;;;;;;;8.17;5.63;;;13.90;99.90;;;;;;6165196;23;20455;-77
2022/10/28 06:50:03;;;;;;;8.83;5.50;;;13.90;99.90;;;;;;6170926;23;20509;-77
2022/10/28 06:52:30;;;;;;;10.83;4.87;;;13.90;99.90;;;;;;6160710;23;20483;-77
2022/10/28 06:54:57;;;;;;;12.13;5.70;;;13.90;99.90;;;;;;6159936;23;20435;-77
2022/10/28 06:57:25;;;;;;;7.53;5.00;;;13.90;99.90;;;;;;6159420;23;20481;-77
2022/10/28 06:59:52;;;;;;;7.37;4.93;;;13.90;99.90;;;;;;6164420;23;20460;-78
2022/10/28 07:02:19;;;;;;;7.50;4.90;;;13.90;99.90;;;;;;6145538;23;20866;-77
2022/10/28 07:04:48;;;;;;;8.30;5.23;;;14.00;99.90;;;;;;6124931;23;20509;-77
2022/10/28 07:07:15;;;;;;;8.03;5.13;;;14.30;99.90;;;;;;6157197;23;20843;-77
2022/10/28 07:09:43;;;;;;;8.03;5.40;;;14.10;99.90;;;;;;6157144;23;21160;-77
2022/10/28 07:12:11;;;;;;;5.37;4.87;;;14.20;99.90;;;;;;6153626;23;20471;-77
2022/10/28 07:14:56;;;;;;;5.80;5.20;;;14.20;99.90;;;;;;6147260;23;20534;-76
2022/10/28 07:17:24;;;;;;;7.70;4.90;;;14.30;99.90;;;;;;6147845;23;20471;-77
2022/10/28 07:19:53;;;;;;;7.53;4.93;;;14.30;99.90;;;;;;6129297;23;20435;-77
2022/10/28 07:22:20;;;;;;;6.93;5.20;;;14.40;99.90;;;;;;6157652;23;20502;-77
2022/10/28 07:24:47;;;;;;;8.93;4.60;;;14.40;99.90;;;;;;6143152;23;20440;-78
2022/10/28 07:27:15;;;;;;;6.17;4.70;;;14.50;99.90;;;;;;6148022;23;20445;-77
2022/10/28 07:29:42;;;;;;;10.23;5.23;;;14.70;99.90;;;;;;6147349;23;20834;-77
2022/10/28 07:32:09;;;;;;;9.87;5.40;;;15.00;99.90;;;;;;6172638;23;20462;-77
2022/10/28 07:34:36;;;;;;;9.43;5.30;;;15.00;99.90;;;;;;6123964;23;20513;-77
2022/10/28 07:37:05;;;;;;;10.57;4.93;;;15.10;99.90;;;;;;6148284;23;20470;-77
2022/10/28 07:39:33;;;;;;;7.97;5.20;;;15.30;99.90;;;;;;6131914;23;20485;-77
2022/10/28 07:42:00;;;;;;;7.80;4.90;;;15.40;99.90;;;;;;6143388;23;20759;-77
2022/10/28 07:44:27;;;;;;;9.13;5.37;;;15.70;99.90;;;;;;6164091;23;20948;-77
2022/10/28 07:46:54;;;;;;;10.53;4.70;;;15.80;99.90;;;;;;6155798;23;20445;-77
2022/10/28 07:49:21;;;;;;;7.80;5.00;;;15.80;99.90;;;;;;6132700;23;20503;-77
2022/10/28 07:51:50;;;;;;;6.67;5.00;;;15.80;99.90;;;;;;6165774;23;20452;-77
2022/10/28 07:54:19;;;;;;;7.57;5.00;;;15.70;99.90;;;;;;6148084;23;20440;-77
2022/10/28 07:56:46;;;;;;;6.90;4.53;;;15.80;99.90;;;;;;6148965;23;21004;-77
2022/10/28 07:59:13;;;;;;;6.93;4.67;;;15.70;99.90;;;;;;6139752;23;20515;-77
2022/10/28 08:01:41;;;;;;;12.10;5.43;;;15.60;99.90;;;;;;6148273;23;20493;-77
2022/10/28 08:04:08;;;;;;;6.53;4.70;;;15.50;99.90;;;;;;6146914;23;20677;-77
2022/10/28 08:06:35;;;;;;;11.57;5.60;;;15.50;99.90;;;;;;6170528;23;20922;-77
2022/10/28 08:09:04;;;;;;;6.47;4.27;;;15.50;99.90;;;;;;6168922;23;20432;-77
2022/10/28 08:11:33;;;;;;;8.03;5.13;;;15.50;99.90;;;;;;6145022;23;20520;-77
2022/10/28 08:14:02;;;;;;;9.63;4.97;;;15.60;99.90;;;;;;6148125;23;20833;-77
2022/10/28 08:16:30;;;;;;;8.40;5.10;;;15.60;99.90;;;;;;6163205;23;20461;-77
2022/10/28 08:18:57;;;;;;;6.83;5.10;;;15.60;99.90;;;;;;6124934;23;20507;-77
2022/10/28 08:21:25;;;;;;;7.53;5.10;;;15.40;99.90;;;;;;6176962;23;20929;-77
2022/10/28 08:23:54;;;;;;;8.77;5.00;;;15.70;99.90;;;;;;6151217;23;20433;-77
2022/10/28 08:26:21;;;;;;;9.07;4.90;;;15.80;99.90;;;;;;6138141;23;20563;-77
2022/10/28 08:28:49;;;;;;;6.67;5.23;;;15.80;99.90;;;;;;6148221;23;20429;-77
2022/10/28 08:31:16;;;;;;;8.73;4.80;;;15.70;99.90;;;;;;6144700;23;20443;-77
2022/10/28 08:33:45;;;;;;;7.27;5.10;;;15.80;99.90;;;;;;6151552;23;20456;-77
2022/10/28 08:36:14;;;;;;;9.50;5.63;;;15.80;99.90;;;;;;6154054;23;20424;-77
2022/10/28 08:38:43;;;;;;;6.53;4.80;;;15.80;99.90;;;;;;6148935;23;20440;-77
2022/10/28 08:41:21;;;;;;;7.63;5.03;;;15.80;99.90;;;;;;6153346;23;20524;-77
2022/10/28 08:44:13;;;;;;;6.37;4.90;;;15.80;99.90;;;;;;6171112;23;20435;-77
2022/10/28 08:46:55;;;;;;;9.50;4.60;;;15.90;99.90;;;;;;6113146;23;20442;-77
2022/10/28 08:49:24;;;;;;;5.60;4.37;;;15.90;99.90;;;;;;6151285;23;20759;-77
2022/10/28 08:51:54;;;;;;;6.27;4.90;;;16.00;99.90;;;;;;6154503;23;20458;-77
2022/10/28 08:54:26;;;;;;;8.87;4.37;;;16.20;99.90;;;;;;6151323;23;20988;-77
2022/10/28 08:56:56;;;;;;;8.23;4.80;;;16.30;99.90;;;;;;6169410;23;20432;-78
2022/10/28 08:59:29;;;;;;;8.50;4.53;;;16.40;99.90;;;;;;6108790;23;20984;-77
2022/10/28 09:01:59;;;;;;;6.53;4.80;;;16.50;99.90;;;;;;6150677;23;20519;-77
2022/10/28 09:04:35;;;;;;;6.13;4.20;;;16.70;99.90;;;;;;6150983;23;20426;-77
2022/10/28 09:07:04;;;;;;;6.60;4.00;;;16.90;99.90;;;;;;6157406;23;20444;-77
2022/10/28 09:09:31;;;;;;;6.83;4.20;;;17.10;99.90;;;;;;6149149;23;20428;-77
2022/10/28 09:12:08;;;;;;;5.60;4.30;;;17.40;99.90;;;;;;6143940;23;20759;-77
2022/10/28 09:14:57;;;;;;;5.67;3.70;;;17.60;99.90;;;;;;6126740;23;20920;-77
2022/10/28 09:17:32;;;;;;;5.63;4.00;;;17.70;99.90;;;;;;6128221;23;20435;-77
2022/10/28 09:20:10;;;;;;;8.17;4.17;;;17.80;99.90;;;;;;6144134;23;20489;-77
2022/10/28 09:22:46;;;;;;;8.70;4.40;;;17.90;99.90;;;;;;6149239;23;20499;-77
2022/10/28 09:25:22;;;;;;;5.30;3.90;;;17.90;99.90;;;;;;6147377;23;20427;-77
2022/10/28 09:28:01;;;;;;;7.27;4.57;;;17.90;99.90;;;;;;6141094;23;20451;-77
2022/10/28 09:30:38;;;;;;;6.53;4.40;;;17.90;99.90;;;;;;6158815;23;20523;-77
2022/10/28 09:33:18;;;;;;;8.67;4.20;;;17.80;99.90;;;;;;6154029;23;20861;-77
2022/10/28 09:35:47;;;;;;;4.20;3.73;;;17.70;99.90;;;;;;6139048;23;20452;-77
2022/10/28 09:38:24;;;;;;;6.30;4.70;;;17.60;99.90;;;;;;6162904;23;20436;-77
2022/10/28 09:40:58;;;;;;;6.37;4.30;;;17.50;99.90;;;;;;6128899;23;20436;-77
2022/10/28 09:43:27;;;;;;;9.03;5.30;;;17.50;99.90;;;;;;6137329;23;20513;-76
2022/10/28 09:46:02;;;;;;;7.13;3.90;;;17.60;99.90;;;;;;6133945;23;20866;-77
2022/10/28 09:48:32;;;;;;;6.07;4.33;;;17.60;99.90;;;;;;6139797;23;20431;-77
2022/10/28 09:51:00;;;;;;;6.60;3.93;;;17.70;99.90;;;;;;6142281;23;20472;-77
2022/10/28 09:53:39;;;;;;;10.40;3.97;;;17.90;99.90;;;;;;6120996;23;20457;-77
2022/10/28 09:56:07;;;;;;;9.57;4.30;;;18.10;99.90;;;;;;6126556;23;20436;-77
2022/10/28 09:58:35;;;;;;;6.90;4.17;;;18.30;99.90;;;;;;6140158;23;20468;-77
2022/10/28 10:01:04;;;;;;;6.37;3.93;;;18.50;99.90;;;;;;6121217;23;20926;-77
2022/10/28 10:03:32;;;;;;;6.20;4.60;;;18.70;99.90;;;;;;6128066;23;20445;-77
2022/10/28 10:06:05;;;;;;;4.80;4.07;;;18.90;99.90;;;;;;6136937;23;20468;-77
2022/10/28 10:08:33;;;;;;;6.90;4.30;;;19.10;99.90;;;;;;6161431;23;20830;-77
2022/10/28 10:11:05;;;;;;;5.57;4.10;;;19.40;99.90;;;;;;6154445;23;20436;-77
2022/10/28 10:13:36;;;;;;;5.47;4.10;;;19.60;99.90;;;;;;6180564;23;21071;-77
2022/10/28 10:16:12;;;;;;;3.90;3.30;;;19.80;99.90;;;;;;6175331;23;20523;-77
2022/10/28 10:18:45;;;;;;;7.23;4.17;;;20.00;99.90;;;;;;6153721;23;20525;-77
2022/10/28 10:21:13;;;;;;;4.80;3.70;;;20.40;99.90;;;;;;6178262;23;20526;-78
2022/10/28 10:23:40;;;;;;;5.00;3.77;;;20.60;99.90;;;;;;6175758;23;20434;-77
2022/10/28 10:26:10;;;;;;;7.07;4.10;;;20.60;99.90;;;;;;6180287;23;20455;-77
2022/10/28 10:28:41;;;;;;;6.70;4.17;;;20.70;99.90;;;;;;6153371;23;20432;-77
2022/10/28 10:31:18;;;;;;;5.90;3.60;;;20.50;99.90;;;;;;6182672;23;20443;-78
2022/10/28 10:33:50;;;;;;;6.37;4.47;;;20.30;99.90;;;;;;6165180;23;20561;-78
2022/10/28 10:36:21;;;;;;;9.83;4.00;;;20.10;99.90;;;;;;6182664;23;20443;-78
2022/10/28 10:38:52;;;;;;;5.53;3.97;;;19.90;99.90;;;;;;6154855;23;20924;-77
2022/10/28 10:41:34;;;;;;;6.63;4.80;;;19.60;99.90;;;;;;6181470;23;20439;-77
2022/10/28 10:44:01;;;;;;;7.60;4.10;;;19.50;99.90;;;;;;6189601;23;20789;-78
2022/10/28 10:46:31;;;;;;;7.20;4.00;;;19.40;99.90;;;;;;6153769;23;20463;-77
2022/10/28 10:49:11;;;;;;;7.53;5.27;;;19.40;99.90;;;;;;6187276;23;20816;-78
2022/10/28 10:51:40;;;;;;;12.20;4.43;;;19.40;99.90;;;;;;6131907;23;20437;-78
2022/10/28 10:54:14;;;;;;;8.53;4.20;;;19.40;99.90;;;;;;6182450;23;20499;-78
2022/10/28 10:56:42;;;;;;;5.90;4.10;;;19.50;99.90;;;;;;6183202;23;20435;-78
2022/10/28 10:59:20;;;;;;;10.60;4.50;;;19.70;99.90;;;;;;6175531;23;20427;-78
2022/10/28 11:01:49;;;;;;;6.37;3.43;;;19.80;99.90;;;;;;6171719;23;20494;-78
2022/10/28 11:04:18;;;;;;;8.60;4.60;;;19.90;99.90;;;;;;6165707;23;20525;-78
2022/10/28 11:06:50;;;;;;;4.83;4.33;;;20.00;99.90;;;;;;6153486;23;20432;-78
2022/10/28 11:09:30;;;;;;;6.00;4.23;;;20.30;99.90;;;;;;6170380;23;20512;-78
2022/10/28 11:11:58;;;;;;;8.57;4.40;;;20.20;99.90;;;;;;6141320;23;20468;-78
2022/10/28 11:14:28;;;;;;;6.27;4.37;;;20.30;99.90;;;;;;6176362;23;21011;-78
2022/10/28 11:17:02;;;;;;;7.03;4.20;;;20.20;99.90;;;;;;6169228;23;20437;-78
2022/10/28 11:19:31;;;;;;;8.43;4.30;;;20.30;99.90;;;;;;6175048;23;21033;-78
2022/10/28 11:22:20;;;;;;;6.87;3.47;;;20.20;99.90;;;;;;6159628;23;20476;-78
2022/10/28 11:25:10;;;;;;;7.43;4.10;;;20.20;99.90;;;;;;6189165;23;20788;-78
2022/10/28 11:27:50;;;;;;;7.27;4.83;;;20.20;99.90;;;;;;6200781;23;20440;-78
2022/10/28 11:30:21;;;;;;;7.50;4.53;;;20.20;99.90;;;;;;6149090;23;20525;-78
2022/10/28 11:33:00;;;;;;;8.60;5.10;;;20.20;99.90;;;;;;6175824;23;20458;-78
2022/10/28 11:35:40;;;;;;;7.20;3.90;;;20.30;99.90;;;;;;6171389;23;20525;-78
2022/10/28 11:38:19;;;;;;;9.33;4.67;;;20.30;99.90;;;;;;6184489;23;20439;-77
2022/10/28 11:41:01;;;;;;;7.53;4.20;;;20.20;99.90;;;;;;6118695;23;20495;-78
2022/10/28 11:43:37;;;;;;;7.90;4.00;;;20.20;99.90;;;;;;6179661;23;20509;-78
2022/10/28 11:46:10;;;;;;;6.00;4.00;;;20.20;99.90;;;;;;6166106;23;20519;-78
2022/10/28 11:48:56;;;;;;;5.33;3.70;;;20.20;99.90;;;;;;6152698;23;20444;-78
2022/10/28 11:51:37;;;;;;;5.57;3.37;;;20.20;99.90;;;;;;6164597;23;20439;-78
2022/10/28 11:54:31;;;;;;;5.97;4.60;;;20.10;99.90;;;;;;6156878;23;20544;-78
2022/10/28 11:57:06;;;;;;;5.73;3.50;;;20.10;99.90;;;;;;6161272;23;20449;-78
2022/10/28 11:59:52;;;;;;;7.27;4.00;;;20.10;99.90;;;;;;6166905;23;20443;-78
2022/10/28 12:02:38;;;;;;;4.93;3.67;;;20.10;99.90;;;;;;6156329;23;20519;-78
2022/10/28 12:05:15;;;;;;;5.43;3.53;;;20.10;99.90;;;;;;6158023;23;20447;-78
2022/10/28 12:08:08;;;;;;;8.90;3.63;;;20.20;99.90;;;;;;6176179;23;20948;-78
2022/10/28 12:10:44;;;;;;;5.87;3.90;;;20.30;99.90;;;;;;6140976;23;20466;-78
2022/10/28 12:13:21;;;;;;;6.80;4.17;;;20.50;99.90;;;;;;6162462;23;20459;-77
2022/10/28 12:15:55;;;;;;;9.70;4.00;;;20.60;99.90;;;;;;6175817;23;20486;-77
2022/10/28 12:18:27;;;;;;;6.00;4.00;;;20.70;99.90;;;;;;6140382;23;21408;-78
2022/10/28 12:21:02;;;;;;;5.10;3.50;;;20.90;99.90;;;;;;6176466;23;20904;-78
2022/10/28 12:23:33;;;;;;;9.50;3.70;;;21.00;99.90;;;;;;6168738;23;20438;-78
2022/10/28 12:26:04;;;;;;;4.30;3.20;;;21.30;99.90;;;;;;6153334;23;20436;-83
2022/10/28 12:28:37;;;;;;;6.40;3.10;;;21.70;99.90;;;;;;6179227;23;20798;-79
2022/10/28 12:31:08;;;;;;;5.17;3.13;;;22.10;99.90;;;;;;6202725;23;20441;-79
2022/10/28 12:33:39;;;;;;;7.23;3.53;;;22.40;99.90;;;;;;6187196;23;20908;-78
2022/10/28 12:36:24;;;;;;;6.80;3.60;;;22.60;99.90;;;;;;6181280;23;20431;-78
2022/10/28 12:38:57;;;;;;;5.60;3.17;;;22.60;99.90;;;;;;6185466;23;20508;-78
2022/10/28 12:41:27;;;;;;;8.20;3.73;;;22.70;99.90;;;;;;6179161;23;20415;-78
2022/10/28 12:44:01;;;;;;;4.67;2.80;;;23.20;99.90;;;;;;6180751;23;20849;-79
2022/10/28 12:46:43;;;;;;;5.53;2.77;;;23.80;99.90;;;;;;6179634;23;20999;-79
2022/10/28 12:49:16;;;;;;;6.00;3.17;;;24.20;99.90;;;;;;6186231;23;20476;-78
2022/10/28 12:51:45;;;;;;;7.23;3.30;;;24.50;99.90;;;;;;6142326;23;20482;-78
2022/10/28 12:54:21;;;;;;;4.87;2.90;;;24.70;99.90;;;;;;6157956;23;20865;-79
2022/10/28 12:56:52;;;;;;;3.03;2.30;;;25.00;99.90;;;;;;6169369;23;20411;-79
2022/10/28 12:59:29;;;;;;;4.40;2.67;;;25.30;99.90;;;;;;6153479;23;20431;-78
2022/10/28 13:01:59;;;;;;;5.13;3.13;;;25.40;99.90;;;;;;6177169;23;20521;-79
2022/10/28 13:04:28;;;;;;;6.40;2.80;;;25.60;99.90;;;;;;6164355;23;20439;-78
2022/10/28 13:07:13;;;;;;;6.13;3.00;;;25.70;99.90;;;;;;6181258;23;20939;-78